sensor_id;sensor_type;location;lat;lon;timestamp;temperature;humidity
33105;DHT22;19476;51.448;6.674;2023-07-13T00:01:48;24.00;40.00
33105;DHT22;19476;51.448;6.674;2023-07-13T00:04:16;24.00;40.00
33105;DHT22;19476;51.448;6.674;2023-07-13T00:06:44;24.00;40.10
33105;DHT22;19476;51.448;6.674;2023-07-13T00:09:14;23.90;40.10
33105;DHT22;19476;51.448;6.674;2023-07-13T00:11:41;23.90;40.20
33105;DHT22;19476;51.448;6.674;2023-07-13T00:14:07;23.80;40.10
33105;DHT22;19476;51.448;6.674;2023-07-13T00:16:38;23.80;40.10
33105;DHT22;19476;51.448;6.674;2023-07-13T00:19:04;23.70;40.30
33105;DHT22;19476;51.448;6.674;2023-07-13T00:21:30;23.70;40.20
33105;DHT22;19476;51.448;6.674;2023-07-13T00:23:55;23.60;40.10
33105;DHT22;19476;51.448;6.674;2023-07-13T00:26:21;23.60;40.20
33105;DHT22;19476;51.448;6.674;2023-07-13T00:38:57;23.50;40.80
33105;DHT22;19476;51.448;6.674;2023-07-13T00:41:23;23.40;40.50
33105;DHT22;19476;51.448;6.674;2023-07-13T00:43:49;23.40;40.70
33105;DHT22;19476;51.448;6.674;2023-07-13T00:46:19;23.40;40.80
33105;DHT22;19476;51.448;6.674;2023-07-13T00:48:47;23.30;41.10
33105;DHT22;19476;51.448;6.674;2023-07-13T00:51:16;23.30;41.20
33105;DHT22;19476;51.448;6.674;2023-07-13T00:53:43;23.30;41.20
33105;DHT22;19476;51.448;6.674;2023-07-13T00:56:09;23.20;41.10
33105;DHT22;19476;51.448;6.674;2023-07-13T00:58:36;23.20;41.20
33105;DHT22;19476;51.448;6.674;2023-07-13T01:01:02;23.20;41.20
33105;DHT22;19476;51.448;6.674;2023-07-13T01:03:28;23.20;41.40
33105;DHT22;19476;51.448;6.674;2023-07-13T01:05:54;23.20;41.40
33105;DHT22;19476;51.448;6.674;2023-07-13T01:08:21;23.20;41.50
33105;DHT22;19476;51.448;6.674;2023-07-13T01:10:54;23.10;41.60
33105;DHT22;19476;51.448;6.674;2023-07-13T01:13:20;23.10;41.90
33105;DHT22;19476;51.448;6.674;2023-07-13T01:15:48;23.00;41.50
33105;DHT22;19476;51.448;6.674;2023-07-13T01:18:27;23.00;41.80
33105;DHT22;19476;51.448;6.674;2023-07-13T01:20:56;23.00;42.10
33105;DHT22;19476;51.448;6.674;2023-07-13T01:23:23;23.00;41.90
33105;DHT22;19476;51.448;6.674;2023-07-13T01:25:50;22.90;42.00
33105;DHT22;19476;51.448;6.674;2023-07-13T01:28:16;22.90;42.00
33105;DHT22;19476;51.448;6.674;2023-07-13T01:30:44;22.80;42.10
33105;DHT22;19476;51.448;6.674;2023-07-13T01:33:16;22.90;42.20
33105;DHT22;19476;51.448;6.674;2023-07-13T01:35:42;22.90;42.50
33105;DHT22;19476;51.448;6.674;2023-07-13T01:38:09;22.80;42.30
33105;DHT22;19476;51.448;6.674;2023-07-13T01:40:36;22.80;42.40
33105;DHT22;19476;51.448;6.674;2023-07-13T01:43:02;22.80;42.50
33105;DHT22;19476;51.448;6.674;2023-07-13T01:45:28;22.70;42.50
33105;DHT22;19476;51.448;6.674;2023-07-13T01:47:54;22.70;42.50
33105;DHT22;19476;51.448;6.674;2023-07-13T01:50:20;22.70;42.60
33105;DHT22;19476;51.448;6.674;2023-07-13T01:52:46;22.40;42.60
33105;DHT22;19476;51.448;6.674;2023-07-13T01:55:11;22.70;42.90
33105;DHT22;19476;51.448;6.674;2023-07-13T01:57:38;22.60;42.90
33105;DHT22;19476;51.448;6.674;2023-07-13T02:00:05;22.60;43.00
33105;DHT22;19476;51.448;6.674;2023-07-13T02:02:31;22.50;43.20
33105;DHT22;19476;51.448;6.674;2023-07-13T02:04:57;22.50;43.20
33105;DHT22;19476;51.448;6.674;2023-07-13T02:07:23;22.50;43.40
33105;DHT22;19476;51.448;6.674;2023-07-13T02:09:49;22.50;43.40
33105;DHT22;19476;51.448;6.674;2023-07-13T02:12:14;22.40;43.40
33105;DHT22;19476;51.448;6.674;2023-07-13T02:14:40;22.40;43.50
33105;DHT22;19476;51.448;6.674;2023-07-13T02:17:06;22.40;43.60
33105;DHT22;19476;51.448;6.674;2023-07-13T02:19:32;22.40;43.70
33105;DHT22;19476;51.448;6.674;2023-07-13T02:21:58;22.40;43.70
33105;DHT22;19476;51.448;6.674;2023-07-13T02:24:23;22.40;43.80
33105;DHT22;19476;51.448;6.674;2023-07-13T02:26:49;22.40;43.70
33105;DHT22;19476;51.448;6.674;2023-07-13T02:29:15;22.40;43.80
33105;DHT22;19476;51.448;6.674;2023-07-13T02:31:41;22.30;43.70
33105;DHT22;19476;51.448;6.674;2023-07-13T02:34:06;22.30;43.70
33105;DHT22;19476;51.448;6.674;2023-07-13T02:36:32;22.30;43.80
33105;DHT22;19476;51.448;6.674;2023-07-13T02:39:01;22.30;43.80
33105;DHT22;19476;51.448;6.674;2023-07-13T02:41:28;22.30;44.10
33105;DHT22;19476;51.448;6.674;2023-07-13T02:43:55;22.30;43.90
33105;DHT22;19476;51.448;6.674;2023-07-13T02:46:33;22.30;44.10
33105;DHT22;19476;51.448;6.674;2023-07-13T02:48:59;22.30;44.30
33105;DHT22;19476;51.448;6.674;2023-07-13T02:51:26;22.30;44.00
33105;DHT22;19476;51.448;6.674;2023-07-13T02:53:52;22.30;44.10
33105;DHT22;19476;51.448;6.674;2023-07-13T02:56:22;22.20;44.10
33105;DHT22;19476;51.448;6.674;2023-07-13T02:58:48;22.20;44.50
33105;DHT22;19476;51.448;6.674;2023-07-13T03:01:14;22.20;44.40
33105;DHT22;19476;51.448;6.674;2023-07-13T03:03:45;22.10;44.40
33105;DHT22;19476;51.448;6.674;2023-07-13T03:06:11;22.10;44.60
33105;DHT22;19476;51.448;6.674;2023-07-13T03:08:37;22.10;44.60
33105;DHT22;19476;51.448;6.674;2023-07-13T03:11:14;22.10;44.60
33105;DHT22;19476;51.448;6.674;2023-07-13T03:13:41;22.10;45.10
33105;DHT22;19476;51.448;6.674;2023-07-13T03:16:08;22.00;44.80
33105;DHT22;19476;51.448;6.674;2023-07-13T03:18:34;22.10;44.90
33105;DHT22;19476;51.448;6.674;2023-07-13T03:21:00;22.00;44.90
33105;DHT22;19476;51.448;6.674;2023-07-13T03:23:26;22.00;44.90
33105;DHT22;19476;51.448;6.674;2023-07-13T03:28:35;22.00;45.60
33105;DHT22;19476;51.448;6.674;2023-07-13T03:31:07;22.00;45.10
33105;DHT22;19476;51.448;6.674;2023-07-13T03:33:34;22.00;45.60
33105;DHT22;19476;51.448;6.674;2023-07-13T03:36:00;22.00;45.30
33105;DHT22;19476;51.448;6.674;2023-07-13T03:38:26;21.90;45.90
33105;DHT22;19476;51.448;6.674;2023-07-13T03:40:52;21.90;45.40
33105;DHT22;19476;51.448;6.674;2023-07-13T03:43:18;21.90;45.60
33105;DHT22;19476;51.448;6.674;2023-07-13T03:45:46;21.90;45.70
33105;DHT22;19476;51.448;6.674;2023-07-13T03:48:11;21.80;45.80
33105;DHT22;19476;51.448;6.674;2023-07-13T03:50:37;21.80;45.90
33105;DHT22;19476;51.448;6.674;2023-07-13T03:53:04;21.70;45.90
33105;DHT22;19476;51.448;6.674;2023-07-13T03:55:30;21.70;46.00
33105;DHT22;19476;51.448;6.674;2023-07-13T03:58:01;21.70;46.10
33105;DHT22;19476;51.448;6.674;2023-07-13T04:00:46;21.70;46.50
33105;DHT22;19476;51.448;6.674;2023-07-13T04:03:12;21.70;46.30
33105;DHT22;19476;51.448;6.674;2023-07-13T04:05:38;21.70;46.30
33105;DHT22;19476;51.448;6.674;2023-07-13T04:08:06;21.50;46.40
33105;DHT22;19476;51.448;6.674;2023-07-13T04:10:32;21.60;46.60
33105;DHT22;19476;51.448;6.674;2023-07-13T04:12:58;21.60;46.60
33105;DHT22;19476;51.448;6.674;2023-07-13T04:15:24;21.50;46.70
33105;DHT22;19476;51.448;6.674;2023-07-13T04:17:50;21.60;46.80
33105;DHT22;19476;51.448;6.674;2023-07-13T04:20:16;21.50;46.90
33105;DHT22;19476;51.448;6.674;2023-07-13T04:22:41;21.50;47.00
33105;DHT22;19476;51.448;6.674;2023-07-13T04:25:07;21.60;47.20
33105;DHT22;19476;51.448;6.674;2023-07-13T04:27:33;21.50;47.20
33105;DHT22;19476;51.448;6.674;2023-07-13T04:29:59;21.50;47.30
33105;DHT22;19476;51.448;6.674;2023-07-13T04:32:25;21.50;47.30
33105;DHT22;19476;51.448;6.674;2023-07-13T04:34:50;21.50;47.50
33105;DHT22;19476;51.448;6.674;2023-07-13T04:37:19;21.50;47.50
33105;DHT22;19476;51.448;6.674;2023-07-13T04:39:45;21.50;47.70
33105;DHT22;19476;51.448;6.674;2023-07-13T04:42:11;21.50;47.70
33105;DHT22;19476;51.448;6.674;2023-07-13T04:44:36;21.50;47.90
33105;DHT22;19476;51.448;6.674;2023-07-13T04:47:02;21.50;47.90
33105;DHT22;19476;51.448;6.674;2023-07-13T04:49:28;21.50;48.10
33105;DHT22;19476;51.448;6.674;2023-07-13T04:51:54;21.50;48.10
33105;DHT22;19476;51.448;6.674;2023-07-13T04:54:20;21.50;48.10
33105;DHT22;19476;51.448;6.674;2023-07-13T04:56:47;21.50;48.10
33105;DHT22;19476;51.448;6.674;2023-07-13T04:59:13;21.60;48.30
33105;DHT22;19476;51.448;6.674;2023-07-13T05:01:39;21.60;48.30
33105;DHT22;19476;51.448;6.674;2023-07-13T05:04:06;21.60;48.20
33105;DHT22;19476;51.448;6.674;2023-07-13T05:06:32;21.60;48.40
33105;DHT22;19476;51.448;6.674;2023-07-13T05:08:58;21.60;48.50
33105;DHT22;19476;51.448;6.674;2023-07-13T05:11:24;21.70;48.50
33105;DHT22;19476;51.448;6.674;2023-07-13T05:13:49;21.70;48.50
33105;DHT22;19476;51.448;6.674;2023-07-13T05:16:16;21.70;48.70
33105;DHT22;19476;51.448;6.674;2023-07-13T05:18:41;21.70;48.70
33105;DHT22;19476;51.448;6.674;2023-07-13T05:21:09;21.70;48.70
33105;DHT22;19476;51.448;6.674;2023-07-13T05:23:36;21.70;48.90
33105;DHT22;19476;51.448;6.674;2023-07-13T05:26:03;21.70;48.90
33105;DHT22;19476;51.448;6.674;2023-07-13T05:28:30;21.70;49.20
33105;DHT22;19476;51.448;6.674;2023-07-13T05:30:56;21.70;49.20
33105;DHT22;19476;51.448;6.674;2023-07-13T05:33:23;21.70;49.20
33105;DHT22;19476;51.448;6.674;2023-07-13T05:35:49;21.70;49.40
33105;DHT22;19476;51.448;6.674;2023-07-13T05:38:15;21.70;49.50
33105;DHT22;19476;51.448;6.674;2023-07-13T05:40:43;21.70;49.60
33105;DHT22;19476;51.448;6.674;2023-07-13T05:43:09;21.70;50.00
33105;DHT22;19476;51.448;6.674;2023-07-13T05:45:35;21.70;49.80
33105;DHT22;19476;51.448;6.674;2023-07-13T05:48:01;21.70;49.80
33105;DHT22;19476;51.448;6.674;2023-07-13T05:50:27;21.70;49.80
33105;DHT22;19476;51.448;6.674;2023-07-13T05:52:53;21.80;49.90
33105;DHT22;19476;51.448;6.674;2023-07-13T05:55:20;21.80;50.00
33105;DHT22;19476;51.448;6.674;2023-07-13T05:57:46;21.80;50.20
33105;DHT22;19476;51.448;6.674;2023-07-13T06:00:12;21.80;50.10
33105;DHT22;19476;51.448;6.674;2023-07-13T06:02:38;21.90;50.20
33105;DHT22;19476;51.448;6.674;2023-07-13T06:05:04;21.90;50.10
33105;DHT22;19476;51.448;6.674;2023-07-13T06:07:30;21.90;50.20
33105;DHT22;19476;51.448;6.674;2023-07-13T06:09:56;21.90;50.10
33105;DHT22;19476;51.448;6.674;2023-07-13T06:12:22;22.00;50.20
33105;DHT22;19476;51.448;6.674;2023-07-13T06:14:48;22.10;50.30
33105;DHT22;19476;51.448;6.674;2023-07-13T06:17:14;21.90;50.20
33105;DHT22;19476;51.448;6.674;2023-07-13T06:19:40;21.90;50.20
33105;DHT22;19476;51.448;6.674;2023-07-13T06:22:05;21.90;50.20
33105;DHT22;19476;51.448;6.674;2023-07-13T06:24:31;21.90;50.30
33105;DHT22;19476;51.448;6.674;2023-07-13T06:26:57;21.90;50.40
33105;DHT22;19476;51.448;6.674;2023-07-13T06:29:23;21.90;50.40
33105;DHT22;19476;51.448;6.674;2023-07-13T06:31:48;22.30;50.80
33105;DHT22;19476;51.448;6.674;2023-07-13T06:34:14;21.90;50.60
33105;DHT22;19476;51.448;6.674;2023-07-13T06:36:40;21.90;50.70
33105;DHT22;19476;51.448;6.674;2023-07-13T06:39:06;21.90;50.80
33105;DHT22;19476;51.448;6.674;2023-07-13T06:41:33;21.90;51.20
33105;DHT22;19476;51.448;6.674;2023-07-13T06:43:59;21.80;51.10
33105;DHT22;19476;51.448;6.674;2023-07-13T06:46:25;22.00;51.00
33105;DHT22;19476;51.448;6.674;2023-07-13T06:48:51;22.00;51.20
33105;DHT22;19476;51.448;6.674;2023-07-13T06:51:17;22.00;51.10
33105;DHT22;19476;51.448;6.674;2023-07-13T06:53:43;22.10;51.20
33105;DHT22;19476;51.448;6.674;2023-07-13T06:56:10;22.10;51.10
33105;DHT22;19476;51.448;6.674;2023-07-13T06:58:36;22.00;51.10
33105;DHT22;19476;51.448;6.674;2023-07-13T07:01:03;22.10;51.10
33105;DHT22;19476;51.448;6.674;2023-07-13T07:03:29;22.10;51.30
33105;DHT22;19476;51.448;6.674;2023-07-13T07:06:01;22.10;51.20
33105;DHT22;19476;51.448;6.674;2023-07-13T07:08:26;22.10;51.40
33105;DHT22;19476;51.448;6.674;2023-07-13T07:10:52;22.10;51.20
33105;DHT22;19476;51.448;6.674;2023-07-13T07:13:19;22.10;51.10
33105;DHT22;19476;51.448;6.674;2023-07-13T07:15:47;22.20;51.20
33105;DHT22;19476;51.448;6.674;2023-07-13T07:18:12;22.20;51.40
33105;DHT22;19476;51.448;6.674;2023-07-13T07:20:38;22.20;51.20
33105;DHT22;19476;51.448;6.674;2023-07-13T07:23:04;22.30;51.10
33105;DHT22;19476;51.448;6.674;2023-07-13T07:25:30;22.30;51.00
33105;DHT22;19476;51.448;6.674;2023-07-13T07:27:58;22.30;51.00
33105;DHT22;19476;51.448;6.674;2023-07-13T07:30:24;22.40;50.90
33105;DHT22;19476;51.448;6.674;2023-07-13T07:32:50;22.40;50.80
33105;DHT22;19476;51.448;6.674;2023-07-13T07:35:16;22.40;50.70
33105;DHT22;19476;51.448;6.674;2023-07-13T07:37:41;22.40;50.60
33105;DHT22;19476;51.448;6.674;2023-07-13T07:40:08;22.50;50.70
33105;DHT22;19476;51.448;6.674;2023-07-13T07:42:34;22.50;50.70
33105;DHT22;19476;51.448;6.674;2023-07-13T07:45:00;22.50;50.60
33105;DHT22;19476;51.448;6.674;2023-07-13T07:47:26;22.50;50.60
33105;DHT22;19476;51.448;6.674;2023-07-13T07:49:52;22.50;50.60
33105;DHT22;19476;51.448;6.674;2023-07-13T07:52:18;22.60;50.50
33105;DHT22;19476;51.448;6.674;2023-07-13T07:54:44;22.60;50.40
33105;DHT22;19476;51.448;6.674;2023-07-13T07:57:10;22.70;50.40
33105;DHT22;19476;51.448;6.674;2023-07-13T07:59:36;22.70;50.30
33105;DHT22;19476;51.448;6.674;2023-07-13T08:02:03;22.70;50.30
33105;DHT22;19476;51.448;6.674;2023-07-13T08:04:29;22.80;50.30
33105;DHT22;19476;51.448;6.674;2023-07-13T08:06:55;22.80;50.20
33105;DHT22;19476;51.448;6.674;2023-07-13T08:09:23;22.80;50.30
33105;DHT22;19476;51.448;6.674;2023-07-13T08:11:49;22.90;50.30
33105;DHT22;19476;51.448;6.674;2023-07-13T08:14:16;22.90;50.30
33105;DHT22;19476;51.448;6.674;2023-07-13T08:16:42;23.00;50.20
33105;DHT22;19476;51.448;6.674;2023-07-13T08:19:08;23.00;50.00
33105;DHT22;19476;51.448;6.674;2023-07-13T08:21:34;23.10;49.90
33105;DHT22;19476;51.448;6.674;2023-07-13T08:23:59;23.20;49.80
33105;DHT22;19476;51.448;6.674;2023-07-13T08:26:25;23.20;49.80
33105;DHT22;19476;51.448;6.674;2023-07-13T08:28:51;23.30;49.60
33105;DHT22;19476;51.448;6.674;2023-07-13T08:31:17;23.40;49.70
33105;DHT22;19476;51.448;6.674;2023-07-13T08:33:42;23.40;49.50
33105;DHT22;19476;51.448;6.674;2023-07-13T08:36:08;23.50;49.30
33105;DHT22;19476;51.448;6.674;2023-07-13T08:38:34;23.60;49.20
33105;DHT22;19476;51.448;6.674;2023-07-13T08:41:05;23.60;48.90
33105;DHT22;19476;51.448;6.674;2023-07-13T08:43:36;23.60;48.90
33105;DHT22;19476;51.448;6.674;2023-07-13T08:46:16;23.60;48.80
33105;DHT22;19476;51.448;6.674;2023-07-13T08:49:05;23.70;49.00
33105;DHT22;19476;51.448;6.674;2023-07-13T08:51:34;23.70;49.30
33105;DHT22;19476;51.448;6.674;2023-07-13T08:56:54;23.80;49.20
33105;DHT22;19476;51.448;6.674;2023-07-13T08:59:24;23.90;48.90
33105;DHT22;19476;51.448;6.674;2023-07-13T09:05:04;23.90;48.60
33105;DHT22;19476;51.448;6.674;2023-07-13T09:10:18;24.00;48.70
33105;DHT22;19476;51.448;6.674;2023-07-13T09:15:29;24.00;48.60
33105;DHT22;19476;51.448;6.674;2023-07-13T09:18:03;24.00;48.40
33105;DHT22;19476;51.448;6.674;2023-07-13T09:20:42;24.00;48.50
33105;DHT22;19476;51.448;6.674;2023-07-13T09:23:16;24.10;48.50
33105;DHT22;19476;51.448;6.674;2023-07-13T09:25:47;24.10;48.10
33105;DHT22;19476;51.448;6.674;2023-07-13T09:28:47;24.10;48.20
33105;DHT22;19476;51.448;6.674;2023-07-13T09:33:50;24.20;48.20
33105;DHT22;19476;51.448;6.674;2023-07-13T09:38:45;24.10;47.90
33105;DHT22;19476;51.448;6.674;2023-07-13T09:41:20;24.40;48.10
33105;DHT22;19476;51.448;6.674;2023-07-13T09:44:08;24.10;48.20
33105;DHT22;19476;51.448;6.674;2023-07-13T09:46:38;24.20;48.20
33105;DHT22;19476;51.448;6.674;2023-07-13T09:49:05;24.20;48.00
33105;DHT22;19476;51.448;6.674;2023-07-13T09:51:30;24.20;47.90
33105;DHT22;19476;51.448;6.674;2023-07-13T09:53:56;24.20;47.90
33105;DHT22;19476;51.448;6.674;2023-07-13T09:56:26;24.20;47.80
33105;DHT22;19476;51.448;6.674;2023-07-13T09:58:52;24.30;48.10
33105;DHT22;19476;51.448;6.674;2023-07-13T10:01:39;24.30;47.90
33105;DHT22;19476;51.448;6.674;2023-07-13T10:04:16;24.40;47.80
33105;DHT22;19476;51.448;6.674;2023-07-13T10:06:44;24.40;47.20
33105;DHT22;19476;51.448;6.674;2023-07-13T10:09:13;24.50;47.00
33105;DHT22;19476;51.448;6.674;2023-07-13T10:11:40;24.60;46.90
33105;DHT22;19476;51.448;6.674;2023-07-13T10:14:17;24.60;46.80
33105;DHT22;19476;51.448;6.674;2023-07-13T10:16:46;24.60;45.60
33105;DHT22;19476;51.448;6.674;2023-07-13T10:19:13;24.60;45.90
33105;DHT22;19476;51.448;6.674;2023-07-13T10:24:21;24.70;46.30
33105;DHT22;19476;51.448;6.674;2023-07-13T10:27:03;24.70;46.10
33105;DHT22;19476;51.448;6.674;2023-07-13T10:29:35;24.80;45.90
33105;DHT22;19476;51.448;6.674;2023-07-13T10:32:03;24.90;46.00
33105;DHT22;19476;51.448;6.674;2023-07-13T10:34:33;24.90;46.10
33105;DHT22;19476;51.448;6.674;2023-07-13T10:37:00;25.00;45.90
33105;DHT22;19476;51.448;6.674;2023-07-13T10:39:28;25.10;45.50
33105;DHT22;19476;51.448;6.674;2023-07-13T10:41:59;25.20;45.20
33105;DHT22;19476;51.448;6.674;2023-07-13T10:44:31;25.20;44.70
33105;DHT22;19476;51.448;6.674;2023-07-13T10:47:01;25.30;44.60
33105;DHT22;19476;51.448;6.674;2023-07-13T10:49:31;25.30;44.50
33105;DHT22;19476;51.448;6.674;2023-07-13T10:52:00;25.40;43.90
33105;DHT22;19476;51.448;6.674;2023-07-13T10:57:18;25.50;43.60
33105;DHT22;19476;51.448;6.674;2023-07-13T11:00:15;25.50;43.60
33105;DHT22;19476;51.448;6.674;2023-07-13T11:02:41;25.60;43.80
33105;DHT22;19476;51.448;6.674;2023-07-13T11:05:36;25.70;43.60
33105;DHT22;19476;51.448;6.674;2023-07-13T11:10:49;25.90;42.80
33105;DHT22;19476;51.448;6.674;2023-07-13T11:13:38;26.00;42.00
33105;DHT22;19476;51.448;6.674;2023-07-13T11:16:43;26.10;41.80
33105;DHT22;19476;51.448;6.674;2023-07-13T11:25:21;26.40;41.40
33105;DHT22;19476;51.448;6.674;2023-07-13T11:36:19;26.80;40.50
33105;DHT22;19476;51.448;6.674;2023-07-13T11:41:49;27.10;40.50
33105;DHT22;19476;51.448;6.674;2023-07-13T11:44:23;27.20;39.10
33105;DHT22;19476;51.448;6.674;2023-07-13T11:46:52;27.40;39.10
33105;DHT22;19476;51.448;6.674;2023-07-13T11:49:20;27.40;39.30
33105;DHT22;19476;51.448;6.674;2023-07-13T11:51:47;27.60;38.50
33105;DHT22;19476;51.448;6.674;2023-07-13T11:57:02;27.80;38.00
33105;DHT22;19476;51.448;6.674;2023-07-13T11:59:32;27.90;38.00
33105;DHT22;19476;51.448;6.674;2023-07-13T12:01:59;27.90;38.40
33105;DHT22;19476;51.448;6.674;2023-07-13T12:04:30;28.00;38.10
33105;DHT22;19476;51.448;6.674;2023-07-13T12:07:30;28.00;37.80
33105;DHT22;19476;51.448;6.674;2023-07-13T12:10:23;28.10;37.60
33105;DHT22;19476;51.448;6.674;2023-07-13T12:15:21;28.20;37.00
33105;DHT22;19476;51.448;6.674;2023-07-13T12:17:50;28.20;37.80
33105;DHT22;19476;51.448;6.674;2023-07-13T12:20:34;28.10;37.30
33105;DHT22;19476;51.448;6.674;2023-07-13T12:23:01;28.10;36.80
33105;DHT22;19476;51.448;6.674;2023-07-13T12:25:28;28.00;36.80
33105;DHT22;19476;51.448;6.674;2023-07-13T12:27:55;27.90;37.00
33105;DHT22;19476;51.448;6.674;2023-07-13T12:30:32;27.90;37.10
33105;DHT22;19476;51.448;6.674;2023-07-13T12:33:07;27.80;37.10
33105;DHT22;19476;51.448;6.674;2023-07-13T12:35:42;27.70;36.80
33105;DHT22;19476;51.448;6.674;2023-07-13T12:38:11;27.60;36.60
33105;DHT22;19476;51.448;6.674;2023-07-13T12:40:38;27.40;36.90
33105;DHT22;19476;51.448;6.674;2023-07-13T12:43:10;27.30;37.30
33105;DHT22;19476;51.448;6.674;2023-07-13T12:46:36;27.20;37.40
33105;DHT22;19476;51.448;6.674;2023-07-13T12:48:43;27.10;37.60
33105;DHT22;19476;51.448;6.674;2023-07-13T12:51:14;27.00;37.90
33105;DHT22;19476;51.448;6.674;2023-07-13T12:53:47;26.90;39.50
33105;DHT22;19476;51.448;6.674;2023-07-13T12:56:19;26.80;39.70
33105;DHT22;19476;51.448;6.674;2023-07-13T12:58:47;26.70;39.90
33105;DHT22;19476;51.448;6.674;2023-07-13T13:01:17;26.70;39.80
33105;DHT22;19476;51.448;6.674;2023-07-13T13:03:48;26.60;39.30
33105;DHT22;19476;51.448;6.674;2023-07-13T13:09:38;26.50;39.00
33105;DHT22;19476;51.448;6.674;2023-07-13T13:12:07;26.50;39.20
33105;DHT22;19476;51.448;6.674;2023-07-13T13:14:33;26.60;39.00
33105;DHT22;19476;51.448;6.674;2023-07-13T13:17:01;26.60;39.20
33105;DHT22;19476;51.448;6.674;2023-07-13T13:19:28;26.70;39.10
33105;DHT22;19476;51.448;6.674;2023-07-13T13:21:56;26.80;39.20
33105;DHT22;19476;51.448;6.674;2023-07-13T13:24:24;26.90;39.20
33105;DHT22;19476;51.448;6.674;2023-07-13T13:26:53;27.00;39.20
33105;DHT22;19476;51.448;6.674;2023-07-13T13:29:23;27.10;39.10
33105;DHT22;19476;51.448;6.674;2023-07-13T13:31:50;27.20;38.90
33105;DHT22;19476;51.448;6.674;2023-07-13T13:34:18;27.30;38.70
33105;DHT22;19476;51.448;6.674;2023-07-13T13:36:45;27.40;38.50
33105;DHT22;19476;51.448;6.674;2023-07-13T13:41:47;27.50;38.30
33105;DHT22;19476;51.448;6.674;2023-07-13T13:44:18;27.60;37.40
33105;DHT22;19476;51.448;6.674;2023-07-13T13:46:46;27.70;37.20
33105;DHT22;19476;51.448;6.674;2023-07-13T13:49:18;27.80;37.20
33105;DHT22;19476;51.448;6.674;2023-07-13T13:51:44;27.80;37.10
33105;DHT22;19476;51.448;6.674;2023-07-13T13:54:14;27.80;37.00
33105;DHT22;19476;51.448;6.674;2023-07-13T13:56:46;27.90;36.50
33105;DHT22;19476;51.448;6.674;2023-07-13T13:59:13;28.00;37.50
33105;DHT22;19476;51.448;6.674;2023-07-13T14:01:41;28.10;38.60
33105;DHT22;19476;51.448;6.674;2023-07-13T14:04:15;28.20;39.40
33105;DHT22;19476;51.448;6.674;2023-07-13T14:06:41;28.20;39.80
33105;DHT22;19476;51.448;6.674;2023-07-13T14:09:11;28.20;39.80
33105;DHT22;19476;51.448;6.674;2023-07-13T14:11:38;28.20;40.20
33105;DHT22;19476;51.448;6.674;2023-07-13T14:14:19;28.20;40.20
33105;DHT22;19476;51.448;6.674;2023-07-13T14:16:46;28.10;40.30
33105;DHT22;19476;51.448;6.674;2023-07-13T14:19:18;28.10;40.30
33105;DHT22;19476;51.448;6.674;2023-07-13T14:21:44;28.10;40.30
33105;DHT22;19476;51.448;6.674;2023-07-13T14:24:10;28.00;40.30
33105;DHT22;19476;51.448;6.674;2023-07-13T14:26:39;28.00;40.30
33105;DHT22;19476;51.448;6.674;2023-07-13T14:29:15;28.00;40.10
33105;DHT22;19476;51.448;6.674;2023-07-13T14:31:43;28.10;40.20
33105;DHT22;19476;51.448;6.674;2023-07-13T14:34:12;28.10;39.80
33105;DHT22;19476;51.448;6.674;2023-07-13T14:36:45;28.10;39.70
33105;DHT22;19476;51.448;6.674;2023-07-13T14:41:43;28.00;39.20
33105;DHT22;19476;51.448;6.674;2023-07-13T14:44:14;28.00;39.50
33105;DHT22;19476;51.448;6.674;2023-07-13T14:46:41;27.90;39.60
33105;DHT22;19476;51.448;6.674;2023-07-13T14:49:19;27.80;39.60
33105;DHT22;19476;51.448;6.674;2023-07-13T14:51:46;27.70;39.60
33105;DHT22;19476;51.448;6.674;2023-07-13T14:54:12;27.70;39.70
33105;DHT22;19476;51.448;6.674;2023-07-13T14:56:38;27.60;39.60
33105;DHT22;19476;51.448;6.674;2023-07-13T14:59:04;27.60;39.60
33105;DHT22;19476;51.448;6.674;2023-07-13T15:01:38;27.50;39.60
33105;DHT22;19476;51.448;6.674;2023-07-13T15:04:05;27.50;39.70
33105;DHT22;19476;51.448;6.674;2023-07-13T15:06:35;27.40;40.90
33105;DHT22;19476;51.448;6.674;2023-07-13T15:09:16;27.30;42.00
33105;DHT22;19476;51.448;6.674;2023-07-13T15:11:42;27.20;42.50
33105;DHT22;19476;51.448;6.674;2023-07-13T15:14:08;27.00;42.80
33105;DHT22;19476;51.448;6.674;2023-07-13T15:16:39;26.90;42.70
33105;DHT22;19476;51.448;6.674;2023-07-13T15:19:05;26.70;42.50
33105;DHT22;19476;51.448;6.674;2023-07-13T15:21:32;26.50;42.90
33105;DHT22;19476;51.448;6.674;2023-07-13T15:24:00;26.20;43.20
33105;DHT22;19476;51.448;6.674;2023-07-13T15:26:26;26.10;43.70
33105;DHT22;19476;51.448;6.674;2023-07-13T15:28:52;25.90;43.70
33105;DHT22;19476;51.448;6.674;2023-07-13T15:31:24;25.70;44.30
33105;DHT22;19476;51.448;6.674;2023-07-13T15:33:54;25.60;44.90
33105;DHT22;19476;51.448;6.674;2023-07-13T15:36:21;25.50;45.10
33105;DHT22;19476;51.448;6.674;2023-07-13T15:38:48;25.40;44.90
33105;DHT22;19476;51.448;6.674;2023-07-13T15:41:27;25.30;44.60
33105;DHT22;19476;51.448;6.674;2023-07-13T15:43:57;25.20;44.90
33105;DHT22;19476;51.448;6.674;2023-07-13T15:46:24;25.10;45.00
33105;DHT22;19476;51.448;6.674;2023-07-13T15:48:51;25.00;45.30
33105;DHT22;19476;51.448;6.674;2023-07-13T15:51:28;25.00;46.10
33105;DHT22;19476;51.448;6.674;2023-07-13T15:54:01;24.90;46.80
33105;DHT22;19476;51.448;6.674;2023-07-13T15:56:35;24.90;47.40
33105;DHT22;19476;51.448;6.674;2023-07-13T15:59:01;24.90;47.30
33105;DHT22;19476;51.448;6.674;2023-07-13T16:01:27;24.90;46.90
33105;DHT22;19476;51.448;6.674;2023-07-13T16:03:52;24.80;47.00
33105;DHT22;19476;51.448;6.674;2023-07-13T16:06:25;24.80;46.80
33105;DHT22;19476;51.448;6.674;2023-07-13T16:08:52;24.80;47.40
33105;DHT22;19476;51.448;6.674;2023-07-13T16:11:26;24.80;47.40
33105;DHT22;19476;51.448;6.674;2023-07-13T16:13:53;24.70;48.00
33105;DHT22;19476;51.448;6.674;2023-07-13T16:16:30;24.70;47.60
33105;DHT22;19476;51.448;6.674;2023-07-13T16:18:58;24.70;47.70
33105;DHT22;19476;51.448;6.674;2023-07-13T16:21:30;24.70;47.60
33105;DHT22;19476;51.448;6.674;2023-07-13T16:23:57;24.70;47.70
33105;DHT22;19476;51.448;6.674;2023-07-13T16:26:32;24.70;47.40
33105;DHT22;19476;51.448;6.674;2023-07-13T16:29:11;24.70;47.50
33105;DHT22;19476;51.448;6.674;2023-07-13T16:31:37;24.70;47.90
33105;DHT22;19476;51.448;6.674;2023-07-13T16:34:03;24.70;47.80
33105;DHT22;19476;51.448;6.674;2023-07-13T16:36:29;24.70;47.50
33105;DHT22;19476;51.448;6.674;2023-07-13T16:38:56;24.70;47.60
33105;DHT22;19476;51.448;6.674;2023-07-13T16:41:22;24.70;47.30
33105;DHT22;19476;51.448;6.674;2023-07-13T16:43:48;24.70;47.30
33105;DHT22;19476;51.448;6.674;2023-07-13T16:46:20;24.70;47.50
33105;DHT22;19476;51.448;6.674;2023-07-13T16:48:47;24.80;47.30